Time;durP1;ratioP1;P1;durP2;ratioP2;P2;SDS_P1;SDS_P2;PMS_P1;PMS_P2;Temp;Humidity;BMP_temperature;BMP_pressure;BME280_temperature;BME280_humidity;BME280_pressure;Samples;Min_cycle;Max_cycle;Signal;HPM_P1;HPM_P2
2022/12/29 00:01:58;;;;;;;3.22;1.90;;;;;;;10.52;nan;99932.53;4964789;28;20931;-86
2022/12/29 00:04:28;;;;;;;3.40;1.95;;;;;;;10.52;nan;99918.50;4972461;28;20096;-86
2022/12/29 00:06:54;;;;;;;3.53;2.03;;;;;;;10.52;nan;99927.25;4972422;28;20035;-85
2022/12/29 00:09:19;;;;;;;3.95;2.00;;;;;;;10.55;nan;99926.09;4969688;28;20300;-86
2022/12/29 00:11:50;;;;;;;3.55;1.80;;;;;;;10.56;nan;99930.41;4970501;28;20047;-86
2022/12/29 00:17:03;;;;;;;3.22;1.77;;;;;;;10.59;nan;99920.31;4961636;28;20089;-86
2022/12/29 00:36:38;;;;;;;3.67;1.80;;;;;;;10.81;nan;99928.53;4968696;28;20147;-86
2022/12/29 00:44:50;;;;;;;2.95;1.70;;;;;;;10.91;nan;99917.78;4971918;28;20049;-86
2022/12/29 00:47:15;;;;;;;3.40;1.60;;;;;;;10.90;nan;99916.16;4964419;28;20031;-84
2022/12/29 00:49:43;;;;;;;5.50;1.98;;;;;;;10.94;nan;99918.28;4973336;28;20418;-86
2022/12/29 00:52:11;;;;;;;2.55;1.60;;;;;;;10.94;nan;99920.94;4970922;28;20030;-86
2022/12/29 00:54:38;;;;;;;2.47;1.60;;;;;;;10.94;nan;99926.22;4970491;28;20086;-87
2022/12/29 00:57:06;;;;;;;3.17;1.70;;;;;;;10.96;nan;99918.91;4973821;28;20587;-84
2022/12/29 00:59:31;;;;;;;4.60;2.03;;;;;;;10.93;nan;99921.91;4972735;28;20129;-85
2022/12/29 01:01:57;;;;;;;3.28;1.80;;;;;;;10.94;nan;99917.44;4971133;28;20189;-87
2022/12/29 01:04:23;;;;;;;2.70;1.58;;;;;;;10.91;nan;99918.59;4971363;28;20023;-85
2022/12/29 01:06:49;;;;;;;3.63;2.10;;;;;;;10.91;nan;99920.44;4969942;28;20078;-86
2022/12/29 01:12:05;;;;;;;5.63;2.05;;;;;;;10.81;nan;99912.69;4966985;28;20054;-86
2022/12/29 01:14:31;;;;;;;4.43;2.10;;;;;;;10.80;nan;99917.16;4969898;28;20827;-86
2022/12/29 01:16:56;;;;;;;2.70;1.60;;;;;;;10.77;nan;99911.34;4968025;28;20050;-86
2022/12/29 01:19:22;;;;;;;4.85;1.70;;;;;;;10.80;nan;99911.88;4972677;28;20054;-86
2022/12/29 01:21:48;;;;;;;3.10;1.92;;;;;;;10.80;nan;99911.03;4974861;28;20050;-85
2022/12/29 01:24:15;;;;;;;3.15;1.88;;;;;;;10.76;nan;99910.53;4969196;28;20073;-86
2022/12/29 01:26:40;;;;;;;3.78;2.00;;;;;;;10.81;nan;99907.38;4970772;28;20194;-85
2022/12/29 01:29:05;;;;;;;4.75;1.90;;;;;;;10.78;nan;99905.91;4971799;28;20133;-86
2022/12/29 01:31:30;;;;;;;4.05;1.63;;;;;;;10.78;nan;99902.44;4966191;28;20147;-86
2022/12/29 01:33:56;;;;;;;3.95;1.90;;;;;;;10.85;nan;99903.41;4967963;28;20528;-85
2022/12/29 01:36:21;;;;;;;3.83;1.65;;;;;;;10.91;nan;99899.25;4970211;28;20035;-86
2022/12/29 01:38:46;;;;;;;3.08;1.65;;;;;;;10.92;nan;99903.59;4971715;28;20069;-85
2022/12/29 01:41:14;;;;;;;4.53;1.75;;;;;;;10.94;nan;99912.16;4971936;28;20042;-86
2022/12/29 01:43:44;;;;;;;3.03;1.40;;;;;;;11.01;nan;99911.31;4970457;28;20430;-87
2022/12/29 01:46:27;;;;;;;5.10;1.77;;;;;;;10.99;nan;99913.31;4965981;28;20126;-86
2022/12/29 01:48:58;;;;;;;5.07;1.83;;;;;;;11.00;nan;99922.06;4968907;28;21115;-86
2022/12/29 01:51:25;;;;;;;3.53;1.50;;;;;;;11.01;nan;99918.41;4970082;28;20050;-85
2022/12/29 01:53:54;;;;;;;2.53;1.50;;;;;;;11.02;nan;99925.38;4964424;28;20297;-85
2022/12/29 01:56:20;;;;;;;3.28;1.55;;;;;;;10.90;nan;99926.72;4969495;28;20031;-87
2022/12/29 01:58:51;;;;;;;2.72;1.40;;;;;;;10.60;nan;99915.84;4964309;28;20685;-87
2022/12/29 02:01:19;;;;;;;5.00;1.30;;;;;;;10.36;nan;99914.03;4970196;28;20054;-86
2022/12/29 02:03:45;;;;;;;2.45;1.40;;;;;;;10.31;nan;99919.00;4962997;28;20050;-86
2022/12/29 02:06:23;;;;;;;2.40;1.42;;;;;;;10.21;nan;99906.75;4971662;28;20446;-86
2022/12/29 02:08:51;;;;;;;3.55;1.50;;;;;;;10.17;nan;99920.44;4967607;28;20043;-86
2022/12/29 02:11:18;;;;;;;3.28;1.50;;;;;;;10.17;nan;99931.00;4965754;28;20096;-86
2022/12/29 02:13:43;;;;;;;3.22;1.40;;;;;;;10.17;nan;99925.72;4977516;28;20038;-86
2022/12/29 02:16:31;;;;;;;2.58;1.40;;;;;;;10.21;nan;99925.25;4967858;28;20054;-85
2022/12/29 02:19:31;;;;;;;1.60;1.05;;;;;;;10.26;nan;99908.91;4968756;28;20038;-84
2022/12/29 02:22:17;;;;;;;2.70;1.30;;;;;;;10.41;nan;99915.19;4967384;28;20117;-85
2022/12/29 02:25:16;;;;;;;2.47;1.33;;;;;;;10.54;nan;99913.88;4984468;28;20050;-86
2022/12/29 02:27:50;;;;;;;1.90;1.27;;;;;;;10.62;nan;99908.56;4971605;28;20045;-85
2022/12/29 02:30:25;;;;;;;1.95;1.13;;;;;;;10.66;nan;99915.19;4967644;28;20030;-85
2022/12/29 02:33:09;;;;;;;3.90;1.33;;;;;;;10.73;nan;99910.88;4975259;28;20444;-86
2022/12/29 02:35:43;;;;;;;1.85;1.20;;;;;;;10.74;nan;99904.59;4969435;28;20031;-86
2022/12/29 02:38:37;;;;;;;2.90;1.45;;;;;;;10.79;nan;99912.03;4975728;28;20035;-86
2022/12/29 02:41:12;;;;;;;3.45;1.52;;;;;;;10.82;nan;99907.22;4978275;28;20042;-86
2022/12/29 02:43:54;;;;;;;2.75;1.42;;;;;;;10.87;nan;99892.66;4963360;28;20039;-85
2022/12/29 02:46:28;;;;;;;2.95;1.27;;;;;;;10.89;nan;99893.31;4973598;28;20547;-85
2022/12/29 02:49:20;;;;;;;3.72;1.50;;;;;;;10.94;nan;99898.91;4967360;28;20133;-86
2022/12/29 02:51:51;;;;;;;3.05;1.20;;;;;;;10.98;nan;99882.53;4969699;28;20157;-85
2022/12/29 02:57:10;;;;;;;3.47;1.45;;;;;;;11.04;nan;99875.75;4968639;28;20042;-85
2022/12/29 02:59:36;;;;;;;2.10;1.27;;;;;;;11.03;nan;99879.38;4968820;28;20039;-86
2022/12/29 03:02:43;;;;;;;1.65;1.30;;;;;;;11.02;nan;99873.28;4971550;28;20037;-86
2022/12/29 03:05:15;;;;;;;3.13;1.33;;;;;;;11.05;nan;99857.06;4967499;28;20027;-84
2022/12/29 03:07:50;;;;;;;;;;;;;;;11.07;nan;99872.75;4974845;28;20027;-86
2022/12/29 03:10:37;;;;;;;4.68;1.20;;;;;;;11.10;nan;99858.38;4974714;28;20487;-85
2022/12/29 03:16:12;;;;;;;2.03;1.20;;;;;;;11.15;nan;99861.31;4972559;28;20065;-85
2022/12/29 03:18:43;;;;;;;3.75;1.33;;;;;;;11.14;nan;99859.69;4966640;28;20042;-85
2022/12/29 03:21:14;;;;;;;;;;;;;;;11.12;nan;99861.66;4970731;28;20038;-86
2022/12/29 03:23:42;;;;;;;2.07;1.13;;;;;;;11.07;nan;99848.13;4973878;28;19969;-84
2022/12/29 03:26:11;;;;;;;2.72;1.50;;;;;;;11.11;nan;99846.78;4972878;28;20070;-86
2022/12/29 03:28:50;;;;;;;3.38;1.23;;;;;;;11.16;nan;99840.00;4969488;28;20042;-85
2022/12/29 03:31:17;;;;;;;2.88;1.33;;;;;;;11.18;nan;99837.19;4973771;28;20114;-86
2022/12/29 03:33:44;;;;;;;2.42;1.10;;;;;;;11.18;nan;99829.25;4972782;28;20087;-85
2022/12/29 03:36:16;;;;;;;3.55;1.15;;;;;;;11.21;nan;99835.00;4966568;28;20508;-85
2022/12/29 03:38:55;;;;;;;4.00;1.40;;;;;;;11.18;nan;99831.88;4971578;28;20070;-85
2022/12/29 03:41:25;;;;;;;2.35;1.13;;;;;;;11.18;nan;99840.66;4972023;28;20039;-84
2022/12/29 03:43:51;;;;;;;2.85;1.30;;;;;;;11.22;nan;99839.28;4964229;28;20131;-86
2022/12/29 03:46:16;;;;;;;1.90;1.23;;;;;;;11.21;nan;99823.59;4968725;28;20121;-85
2022/12/29 03:48:42;;;;;;;2.45;1.25;;;;;;;11.20;nan;99830.72;4967247;28;20597;-86
2022/12/29 03:51:07;;;;;;;2.30;1.20;;;;;;;11.18;nan;99830.06;4973764;28;20066;-85
2022/12/29 03:53:32;;;;;;;4.15;1.25;;;;;;;11.20;nan;99814.00;4974097;28;20035;-85
2022/12/29 03:55:57;;;;;;;3.10;1.27;;;;;;;11.19;nan;99821.09;4971145;28;20043;-86
2022/12/29 03:58:23;;;;;;;2.40;1.30;;;;;;;11.17;nan;99817.81;4970485;28;20046;-85
2022/12/29 04:00:48;;;;;;;3.78;1.35;;;;;;;11.16;nan;99802.94;4970287;28;20038;-85
2022/12/29 04:03:13;;;;;;;2.25;1.30;;;;;;;11.09;nan;99803.81;4972843;28;20065;-86
2022/12/29 04:05:38;;;;;;;3.83;1.35;;;;;;;11.12;nan;99796.34;4971102;28;20043;-86
2022/12/29 04:08:04;;;;;;;1.80;1.00;;;;;;;11.07;nan;99811.91;4972640;28;20412;-86
2022/12/29 04:10:29;;;;;;;2.58;1.30;;;;;;;11.10;nan;99805.44;4971148;28;20042;-86
2022/12/29 04:12:55;;;;;;;2.50;1.20;;;;;;;11.12;nan;99801.63;4969040;28;20085;-85
2022/12/29 04:15:20;;;;;;;2.47;1.10;;;;;;;11.13;nan;99795.34;4967908;28;20539;-85
2022/12/29 04:17:45;;;;;;;2.35;1.30;;;;;;;11.12;nan;99798.97;4966898;28;20102;-85
2022/12/29 04:23:02;;;;;;;4.55;1.10;;;;;;;11.17;nan;99796.63;4969688;28;20038;-84
2022/12/29 04:25:28;;;;;;;2.25;1.20;;;;;;;11.23;nan;99790.66;4980504;28;20038;-85
2022/12/29 04:27:53;;;;;;;3.35;1.40;;;;;;;11.25;nan;99793.97;4970387;28;20043;-85
2022/12/29 04:30:18;;;;;;;2.28;1.10;;;;;;;11.26;nan;99792.13;4968604;28;20034;-85
2022/12/29 04:32:44;;;;;;;3.50;1.27;;;;;;;11.26;nan;99797.44;4971175;28;20067;-84
2022/12/29 04:35:09;;;;;;;1.58;1.00;;;;;;;11.26;nan;99794.78;4977261;28;20633;-85
2022/12/29 04:37:34;;;;;;;2.20;1.00;;;;;;;11.27;nan;99791.13;4970812;28;20053;-84
2022/12/29 04:39:59;;;;;;;2.13;1.30;;;;;;;11.28;nan;99782.19;4970735;28;20039;-84
2022/12/29 04:42:25;;;;;;;2.92;1.02;;;;;;;11.26;nan;99785.00;4963499;28;20110;-84
2022/12/29 04:44:50;;;;;;;3.85;1.25;;;;;;;11.24;nan;99784.34;4973870;28;20117;-86
2022/12/29 04:47:15;;;;;;;3.63;1.20;;;;;;;11.27;nan;99784.03;4971263;28;20493;-84
2022/12/29 04:49:40;;;;;;;2.17;1.25;;;;;;;11.30;nan;99785.50;4970892;28;20073;-85
2022/12/29 04:52:08;;;;;;;3.80;1.30;;;;;;;11.33;nan;99790.44;4970935;28;20041;-87
2022/12/29 04:54:33;;;;;;;3.55;1.10;;;;;;;11.39;nan;99788.91;4969896;28;20035;-83
2022/12/29 04:56:58;;;;;;;3.38;1.20;;;;;;;11.37;nan;99788.25;4968783;28;20522;-85
2022/12/29 04:59:24;;;;;;;3.67;1.40;;;;;;;11.41;nan;99787.72;4970470;28;20464;-85
2022/12/29 05:01:49;;;;;;;3.45;1.17;;;;;;;11.40;nan;99794.03;4963785;28;20031;-84
2022/12/29 05:04:14;;;;;;;2.10;1.17;;;;;;;11.34;nan;99786.78;4971449;28;20097;-84
2022/12/29 05:06:39;;;;;;;2.42;1.02;;;;;;;11.30;nan;99796.09;4966011;28;20035;-84
2022/12/29 05:09:05;;;;;;;2.67;1.30;;;;;;;11.32;nan;99801.19;4965303;28;20038;-85
2022/12/29 05:11:30;;;;;;;2.30;1.02;;;;;;;11.37;nan;99804.97;4970530;28;20047;-85
2022/12/29 05:13:56;;;;;;;2.70;1.13;;;;;;;11.41;nan;99800.97;4971845;28;20042;-85
2022/12/29 05:16:21;;;;;;;2.53;1.10;;;;;;;11.43;nan;99803.44;4970383;28;20545;-85
2022/12/29 05:18:46;;;;;;;2.47;1.20;;;;;;;11.47;nan;99807.41;4983489;28;20034;-84
2022/12/29 05:21:12;;;;;;;2.53;0.90;;;;;;;11.50;nan;99809.69;4968689;28;20039;-84
2022/12/29 05:23:37;;;;;;;4.53;1.20;;;;;;;11.44;nan;99807.72;4983374;28;20062;-85
2022/12/29 05:26:02;;;;;;;2.33;1.30;;;;;;;11.47;nan;99807.41;4970046;28;20594;-85
2022/12/29 05:28:27;;;;;;;2.55;1.20;;;;;;;11.43;nan;99798.97;4969169;28;20093;-86
2022/12/29 05:30:53;;;;;;;2.05;1.00;;;;;;;11.48;nan;99812.50;4969265;28;20035;-85
2022/12/29 05:33:19;;;;;;;3.00;1.17;;;;;;;11.51;nan;99815.81;4969253;28;20089;-86
2022/12/29 05:35:44;;;;;;;1.90;1.23;;;;;;;11.51;nan;99800.72;4967585;28;20049;-86
2022/12/29 05:38:10;;;;;;;2.63;1.00;;;;;;;11.52;nan;99804.22;4968654;28;20035;-84
2022/12/29 05:40:35;;;;;;;1.85;1.05;;;;;;;11.50;nan;99815.00;4970533;28;20551;-86
2022/12/29 05:43:01;;;;;;;2.30;1.02;;;;;;;11.50;nan;99799.09;4971042;28;20085;-84
2022/12/29 05:45:26;;;;;;;2.40;1.05;;;;;;;11.50;nan;99798.28;4970708;28;20034;-86
2022/12/29 05:47:51;;;;;;;4.45;1.10;;;;;;;11.46;nan;99803.09;4970979;28;20118;-85
2022/12/29 05:50:16;;;;;;;1.98;1.00;;;;;;;11.48;nan;99798.44;4966185;28;20065;-84
2022/12/29 05:52:42;;;;;;;2.13;1.23;;;;;;;11.51;nan;99800.72;4971480;28;20443;-85
2022/12/29 05:55:07;;;;;;;2.15;1.17;;;;;;;11.48;nan;99796.63;4968994;28;20046;-85
2022/12/29 05:57:33;;;;;;;1.80;1.10;;;;;;;11.48;nan;99798.44;4969027;28;20027;-85
2022/12/29 05:59:58;;;;;;;2.17;1.00;;;;;;;11.45;nan;99796.16;4969656;28;20038;-85
2022/12/29 06:02:23;;;;;;;2.40;1.10;;;;;;;11.52;nan;99806.88;4970486;28;20039;-83
2022/12/29 06:04:49;;;;;;;1.77;1.00;;;;;;;11.52;nan;99818.28;4967154;28;20027;-85
2022/12/29 06:07:14;;;;;;;4.55;1.30;;;;;;;11.55;nan;99791.44;4971293;28;20089;-85
2022/12/29 06:09:39;;;;;;;2.03;1.30;;;;;;;11.53;nan;99784.69;4969485;28;20719;-86
2022/12/29 06:12:05;;;;;;;3.22;1.55;;;;;;;11.59;nan;99792.75;4969220;28;20037;-85
2022/12/29 06:14:30;;;;;;;3.25;1.30;;;;;;;11.51;nan;99787.50;4969996;28;20062;-85
2022/12/29 06:16:55;;;;;;;2.40;1.17;;;;;;;11.55;nan;99794.09;4967448;28;20038;-85
2022/12/29 06:19:21;;;;;;;2.92;1.02;;;;;;;11.54;nan;99787.16;4975863;28;20038;-84
2022/12/29 06:21:46;;;;;;;1.55;1.00;;;;;;;11.54;nan;99776.56;4982633;28;20035;-83
2022/12/29 06:24:11;;;;;;;3.15;1.10;;;;;;;11.56;nan;99787.81;4987693;28;20031;-84
2022/12/29 06:26:37;;;;;;;3.60;1.20;;;;;;;11.52;nan;99783.88;4991653;28;20453;-83
2022/12/29 06:29:02;;;;;;;2.85;1.13;;;;;;;11.50;nan;99785.03;4991163;28;20027;-84
2022/12/29 06:31:28;;;;;;;1.75;1.00;;;;;;;11.50;nan;99785.88;5000004;28;20807;-83
2022/12/29 06:33:53;;;;;;;2.17;1.02;;;;;;;11.50;nan;99788.50;4975034;28;20090;-85
2022/12/29 06:36:18;;;;;;;2.00;1.20;;;;;;;11.45;nan;99783.75;4968902;28;20121;-84
2022/12/29 06:38:43;;;;;;;2.15;1.20;;;;;;;11.44;nan;99782.09;4972396;28;20457;-85
2022/12/29 06:41:09;;;;;;;1.70;1.00;;;;;;;11.40;nan;99775.50;4967951;28;20054;-84
2022/12/29 06:43:37;;;;;;;1.75;1.08;;;;;;;11.42;nan;99778.81;4976435;28;20649;-85
2022/12/29 06:46:03;;;;;;;2.17;1.35;;;;;;;11.41;nan;99777.13;4966379;28;20042;-86
2022/12/29 06:48:29;;;;;;;3.15;1.30;;;;;;;11.40;nan;99774.69;4964825;28;20040;-87
2022/12/29 06:50:54;;;;;;;4.35;1.42;;;;;;;11.41;nan;99777.13;4964034;28;20031;-83
2022/12/29 06:53:19;;;;;;;3.03;1.30;;;;;;;11.40;nan;99790.56;4962160;28;20031;-86
2022/12/29 06:55:44;;;;;;;2.90;1.20;;;;;;;11.40;nan;99787.91;4969790;28;20663;-86
2022/12/29 06:58:10;;;;;;;2.67;1.17;;;;;;;11.40;nan;99783.44;4970557;28;20097;-85
2022/12/29 07:00:35;;;;;;;1.95;1.30;;;;;;;11.40;nan;99779.97;4984942;28;20027;-83
2022/12/29 07:03:00;;;;;;;2.72;1.40;;;;;;;11.42;nan;99772.69;4988629;28;20037;-85
2022/12/29 07:05:27;;;;;;;2.08;1.30;;;;;;;11.41;nan;99773.69;4969765;28;20046;-86
2022/12/29 07:07:53;;;;;;;2.33;1.23;;;;;;;11.43;nan;99764.56;4961854;28;20047;-86
2022/12/29 07:10:18;;;;;;;2.08;1.10;;;;;;;11.45;nan;99773.16;4967057;28;20038;-85
2022/12/29 07:12:44;;;;;;;2.28;1.30;;;;;;;11.48;nan;99767.50;4968010;28;20049;-85
2022/12/29 07:15:09;;;;;;;3.45;1.33;;;;;;;11.49;nan;99768.34;4966938;28;20031;-86
2022/12/29 07:17:35;;;;;;;4.00;1.40;;;;;;;11.52;nan;99769.81;4962012;28;20035;-85
2022/12/29 07:20:00;;;;;;;2.60;1.30;;;;;;;11.56;nan;99771.09;4973026;28;20034;-85
2022/12/29 07:22:25;;;;;;;4.20;1.48;;;;;;;11.59;nan;99774.22;4970459;28;20129;-85
2022/12/29 07:24:51;;;;;;;2.55;1.40;;;;;;;11.56;nan;99771.94;4964808;28;20557;-85
2022/12/29 07:27:16;;;;;;;3.10;1.50;;;;;;;11.60;nan;99778.50;4966387;28;20102;-85
2022/12/29 07:29:41;;;;;;;2.88;1.73;;;;;;;11.59;nan;99763.63;4971780;28;20027;-85
2022/12/29 07:32:07;;;;;;;3.47;1.30;;;;;;;11.61;nan;99777.53;4972000;28;20125;-86
2022/12/29 07:34:32;;;;;;;2.83;1.77;;;;;;;11.57;nan;99781.50;4971891;28;20035;-84
2022/12/29 07:36:57;;;;;;;2.80;1.67;;;;;;;11.64;nan;99773.69;4963607;28;20042;-86
2022/12/29 07:39:22;;;;;;;5.25;1.73;;;;;;;11.68;nan;99785.59;4971948;28;20034;-85
2022/12/29 07:41:48;;;;;;;3.78;1.55;;;;;;;11.67;nan;99783.91;4968230;28;20119;-85
2022/12/29 07:44:13;;;;;;;3.20;1.40;;;;;;;11.63;nan;99783.47;4973892;28;20547;-85
2022/12/29 07:46:38;;;;;;;3.60;1.92;;;;;;;11.68;nan;99788.22;4972814;28;20038;-85
2022/12/29 07:49:03;;;;;;;3.67;1.70;;;;;;;11.68;nan;99789.06;4974715;28;20042;-85
2022/12/29 07:51:29;;;;;;;2.83;1.60;;;;;;;11.71;nan;99795.00;4974653;28;20532;-84
2022/12/29 07:53:54;;;;;;;2.60;1.50;;;;;;;11.64;nan;99785.09;4973965;28;20119;-85
2022/12/29 07:56:19;;;;;;;3.20;1.52;;;;;;;11.74;nan;99795.44;4969859;28;20038;-85
2022/12/29 07:58:45;;;;;;;2.83;1.63;;;;;;;11.79;nan;99792.28;4976831;28;20046;-85
2022/12/29 08:01:10;;;;;;;5.03;1.73;;;;;;;11.77;nan;99802.22;4977533;28;20034;-85
2022/12/29 08:03:36;;;;;;;2.60;1.45;;;;;;;11.76;nan;99811.19;4975138;28;20038;-85
2022/12/29 08:06:01;;;;;;;3.05;1.70;;;;;;;11.79;nan;99810.81;4978158;28;20106;-85
2022/12/29 08:08:26;;;;;;;3.00;1.77;;;;;;;11.76;nan;99812.00;4974129;28;20035;-85
2022/12/29 08:10:52;;;;;;;2.65;1.40;;;;;;;11.79;nan;99819.56;4975465;28;20515;-85
2022/12/29 08:13:17;;;;;;;6.35;1.88;;;;;;;11.79;nan;99811.63;4976912;28;20027;-85
2022/12/29 08:15:42;;;;;;;4.85;1.67;;;;;;;11.85;nan;99823.38;4968246;28;20049;-85
2022/12/29 08:18:08;;;;;;;2.67;1.60;;;;;;;11.80;nan;99829.19;4974477;28;20090;-86
2022/12/29 08:20:33;;;;;;;5.50;1.65;;;;;;;11.82;nan;99829.84;4977312;28;20031;-85
2022/12/29 08:22:58;;;;;;;4.28;1.65;;;;;;;11.84;nan;99835.75;4978920;28;20035;-84
2022/12/29 08:25:23;;;;;;;3.38;1.80;;;;;;;11.85;nan;99847.22;4977675;28;20035;-86
2022/12/29 08:27:49;;;;;;;3.78;1.50;;;;;;;11.89;nan;99848.50;4973554;28;20066;-85
2022/12/29 08:30:14;;;;;;;3.50;1.52;;;;;;;11.89;nan;99835.25;4973605;28;20038;-85
2022/12/29 08:32:40;;;;;;;3.30;1.58;;;;;;;11.92;nan;99842.88;4974840;28;20225;-85
2022/12/29 08:35:05;;;;;;;2.67;1.50;;;;;;;11.97;nan;99842.34;4970791;28;20109;-85
2022/12/29 08:37:32;;;;;;;3.10;1.70;;;;;;;12.03;nan;99855.69;4974339;28;20057;-85
2022/12/29 08:39:59;;;;;;;3.65;1.80;;;;;;;12.07;nan;99850.88;4976212;28;20066;-86
2022/12/29 08:42:30;;;;;;;3.33;1.80;;;;;;;12.01;nan;99856.88;4975466;28;20038;-86
2022/12/29 08:44:55;;;;;;;4.30;1.90;;;;;;;11.97;nan;99848.47;4974709;28;20054;-86
2022/12/29 08:47:21;;;;;;;3.55;1.88;;;;;;;11.92;nan;99853.47;4974366;28;20042;-85
2022/12/29 08:49:46;;;;;;;5.50;1.88;;;;;;;11.98;nan;99847.44;4976403;28;20034;-86
2022/12/29 08:52:11;;;;;;;3.17;2.00;;;;;;;12.04;nan;99853.88;4975386;28;20058;-85
2022/12/29 08:54:36;;;;;;;2.63;1.60;;;;;;;12.09;nan;99852.34;4975951;28;20035;-85
2022/12/29 08:57:02;;;;;;;3.78;1.70;;;;;;;12.14;nan;99857.09;4973921;28;20417;-86
2022/12/29 08:59:27;;;;;;;2.95;1.60;;;;;;;12.16;nan;99854.28;4975400;28;20455;-85
2022/12/29 09:01:52;;;;;;;2.88;1.60;;;;;;;12.19;nan;99853.94;4972266;28;20039;-86
2022/12/29 09:04:18;;;;;;;4.72;1.70;;;;;;;12.21;nan;99852.75;4975286;28;20471;-85
2022/12/29 09:06:44;;;;;;;4.57;1.63;;;;;;;12.19;nan;99846.78;4976844;28;20126;-86
2022/12/29 09:09:10;;;;;;;4.25;1.90;;;;;;;12.17;nan;99851.44;4979234;28;20039;-85
2022/12/29 09:11:36;;;;;;;3.10;1.75;;;;;;;12.19;nan;99859.22;4982373;28;20378;-85
2022/12/29 09:14:01;;;;;;;3.20;1.63;;;;;;;12.19;nan;99851.28;4981064;28;20030;-85
2022/12/29 09:16:26;;;;;;;5.22;2.20;;;;;;;12.16;nan;99856.94;4979123;28;20652;-85
2022/12/29 09:18:52;;;;;;;2.72;1.80;;;;;;;12.12;nan;99859.09;4977118;28;21474;-86
2022/12/29 09:21:17;;;;;;;4.90;1.95;;;;;;;12.14;nan;99878.31;4980513;28;20125;-86
2022/12/29 09:23:43;;;;;;;3.83;1.70;;;;;;;12.11;nan;99868.06;4979993;28;20054;-86
2022/12/29 09:26:08;;;;;;;3.60;1.80;;;;;;;12.08;nan;99874.56;4980932;28;20027;-85
2022/12/29 09:28:34;;;;;;;4.10;2.08;;;;;;;12.07;nan;99870.25;4980630;28;20409;-86
2022/12/29 09:31:00;;;;;;;3.85;1.65;;;;;;;12.08;nan;99873.72;4978107;28;20384;-85
2022/12/29 09:33:26;;;;;;;3.55;1.95;;;;;;;12.08;nan;99879.00;4987156;28;20093;-86
2022/12/29 09:35:58;;;;;;;2.85;1.50;;;;;;;12.12;nan;99867.06;4972065;28;20050;-86
2022/12/29 09:38:25;;;;;;;3.00;1.65;;;;;;;12.16;nan;99880.78;4974454;28;20066;-86
2022/12/29 09:40:55;;;;;;;3.00;1.80;;;;;;;12.09;nan;99881.50;4978903;28;20030;-86
2022/12/29 09:43:29;;;;;;;4.23;1.80;;;;;;;12.12;nan;99882.97;4992394;28;20031;-86
2022/12/29 09:46:24;;;;;;;3.47;1.63;;;;;;;12.14;nan;99886.25;4977296;28;20271;-86
2022/12/29 09:48:55;;;;;;;2.22;1.50;;;;;;;12.23;nan;99887.03;4979173;28;20043;-86
2022/12/29 09:51:23;;;;;;;3.55;1.60;;;;;;;12.24;nan;99900.09;4980552;28;20031;-86
2022/12/29 09:53:58;;;;;;;2.78;1.38;;;;;;;12.29;nan;99910.97;4968198;28;20047;-86
2022/12/29 09:56:25;;;;;;;4.15;1.60;;;;;;;12.41;nan;99897.31;4977099;28;20584;-86
2022/12/29 09:59:02;;;;;;;4.07;1.60;;;;;;;12.46;nan;99909.00;4975521;28;20045;-86
2022/12/29 10:01:36;;;;;;;2.67;1.48;;;;;;;12.57;nan;99904.31;4976899;28;20038;-86
2022/12/29 10:04:05;;;;;;;3.85;1.60;;;;;;;12.68;nan;99910.00;4958292;28;20042;-86
2022/12/29 10:06:42;;;;;;;3.90;1.50;;;;;;;12.70;nan;99904.50;4979909;28;20087;-87
2022/12/29 10:09:37;;;;;;;2.65;1.25;;;;;;;12.72;nan;99902.47;4974356;28;20058;-86
2022/12/29 10:12:37;;;;;;;3.05;1.58;;;;;;;12.78;nan;99906.25;4984764;28;20035;-86
2022/12/29 10:15:10;;;;;;;3.38;1.58;;;;;;;12.76;nan;99909.09;4957418;28;20043;-86
2022/12/29 10:17:44;;;;;;;5.05;1.50;;;;;;;12.73;nan;99904.16;4971691;28;20102;-86
2022/12/29 10:20:33;;;;;;;3.70;1.52;;;;;;;12.86;nan;99917.59;4973461;28;20054;-86
2022/12/29 10:23:04;;;;;;;2.88;1.52;;;;;;;12.86;nan;99917.59;4973447;28;20058;-86
2022/12/29 10:25:36;;;;;;;2.72;1.40;;;;;;;12.90;nan;99921.53;4966102;28;20049;-87
2022/12/29 10:28:17;;;;;;;2.58;1.65;;;;;;;12.91;nan;99925.81;4971986;28;20039;-86
2022/12/29 10:30:45;;;;;;;2.95;1.60;;;;;;;12.99;nan;99924.94;4970340;28;20098;-86
2022/12/29 10:33:18;;;;;;;3.70;2.00;;;;;;;13.02;nan;99918.44;4966356;28;20035;-86
2022/12/29 10:35:45;;;;;;;3.85;1.58;;;;;;;13.10;nan;99916.50;4972336;28;20066;-86
2022/12/29 10:38:34;;;;;;;3.35;1.80;;;;;;;13.14;nan;99916.97;4970896;28;20476;-86
2022/12/29 10:41:14;;;;;;;2.10;1.52;;;;;;;13.19;nan;99906.63;4964626;28;20034;-87
2022/12/29 10:43:47;;;;;;;3.25;1.60;;;;;;;13.23;nan;99909.72;4969714;28;20512;-87
2022/12/29 10:46:19;;;;;;;3.65;1.77;;;;;;;13.18;nan;99897.84;4964965;28;20038;-87
2022/12/29 10:48:46;;;;;;;3.08;1.70;;;;;;;13.21;nan;99906.47;4968153;28;20563;-85
2022/12/29 10:51:21;;;;;;;3.47;1.60;;;;;;;13.36;nan;99904.63;4970670;28;20031;-87
2022/12/29 10:53:52;;;;;;;3.03;1.83;;;;;;;13.44;nan;99901.03;4970729;28;20085;-87
2022/12/29 10:56:26;;;;;;;3.78;1.77;;;;;;;13.52;nan;99904.41;4973033;28;20043;-86
2022/12/29 10:58:56;;;;;;;3.33;1.65;;;;;;;13.58;nan;99900.19;4972349;28;20050;-86
2022/12/29 11:01:26;;;;;;;3.10;1.85;;;;;;;13.51;nan;99894.78;4969457;28;20584;-87
2022/12/29 11:04:03;;;;;;;4.50;1.83;;;;;;;13.45;nan;99906.19;4972249;28;20043;-86
2022/12/29 11:06:32;;;;;;;3.17;1.67;;;;;;;13.45;nan;99908.00;4970976;28;20085;-88
2022/12/29 11:09:07;;;;;;;2.83;1.63;;;;;;;13.47;nan;99906.00;4970500;28;20039;-89
2022/12/29 11:11:35;;;;;;;3.55;1.98;;;;;;;13.38;nan;99914.06;4971686;28;20023;-88
2022/12/29 11:14:35;;;;;;;2.80;1.63;;;;;;;13.30;nan;99913.31;4968599;28;20042;-88
2022/12/29 11:17:02;;;;;;;3.88;1.95;;;;;;;12.92;nan;99914.22;4969067;28;20031;-88
2022/12/29 11:19:31;;;;;;;2.83;1.80;;;;;;;12.61;nan;99910.88;4987251;28;20035;-87
2022/12/29 11:22:21;;;;;;;3.50;1.85;;;;;;;12.40;nan;99920.34;4977225;28;20349;-88
2022/12/29 11:24:48;;;;;;;3.60;1.92;;;;;;;12.31;nan;99910.81;4964865;28;20155;-88
2022/12/29 11:27:23;;;;;;;3.15;1.60;;;;;;;12.26;nan;99914.00;4975755;28;20042;-87
2022/12/29 11:29:51;;;;;;;4.88;1.80;;;;;;;12.33;nan;99920.22;4978267;28;20046;-88
2022/12/29 11:32:29;;;;;;;4.47;2.38;;;;;;;12.51;nan;99924.38;4978248;28;20196;-87
2022/12/29 11:34:54;;;;;;;4.13;2.20;;;;;;;12.63;nan;99928.28;4976090;28;20154;-87
2022/12/29 11:37:38;;;;;;;3.00;1.77;;;;;;;12.84;nan;99924.09;4968424;28;20668;-87
2022/12/29 11:40:26;;;;;;;3.17;1.73;;;;;;;12.95;nan;99932.44;4975725;28;20089;-88
2022/12/29 11:42:54;;;;;;;2.58;1.70;;;;;;;13.07;nan;99927.50;4974984;28;20031;-86
2022/12/29 11:45:23;;;;;;;2.47;1.50;;;;;;;13.19;nan;99919.91;4975569;28;20130;-87
2022/12/29 11:47:52;;;;;;;2.58;1.27;;;;;;;13.22;nan;99908.91;4974987;28;20119;-87
2022/12/29 11:50:29;;;;;;;2.08;1.08;;;;;;;13.21;nan;99917.88;4974162;28;20528;-87
2022/12/29 11:53:06;;;;;;;2.35;1.27;;;;;;;13.23;nan;99920.34;4975132;28;20431;-87
2022/12/29 11:55:32;;;;;;;3.15;1.35;;;;;;;13.16;nan;99921.09;4965448;28;20034;-88
2022/12/29 11:58:01;;;;;;;2.85;1.38;;;;;;;12.91;nan;99917.88;4975191;28;20046;-87
2022/12/29 12:00:30;;;;;;;3.67;1.77;;;;;;;12.71;nan;99912.28;4975796;28;20061;-87
2022/12/29 12:03:07;;;;;;;4.70;2.75;;;;;;;12.52;nan;99905.66;4978289;28;20476;-87
2022/12/29 12:05:52;;;;;;;4.43;1.80;;;;;;;12.59;nan;99910.25;4976884;28;20027;-85
2022/12/29 12:08:43;;;;;;;3.33;1.80;;;;;;;12.66;nan;99909.34;4973857;28;20047;-86
2022/12/29 12:11:17;;;;;;;2.80;1.52;;;;;;;12.82;nan;99918.13;4969244;28;20059;-87
2022/12/29 12:14:09;;;;;;;3.92;1.70;;;;;;;12.77;nan;99921.31;4973985;28;20685;-86
2022/12/29 12:16:48;;;;;;;4.20;2.10;;;;;;;12.88;nan;99926.19;4971310;28;20038;-87
2022/12/29 12:19:42;;;;;;;3.88;1.77;;;;;;;12.95;nan;99927.13;4975244;28;20513;-87
2022/12/29 12:22:16;;;;;;;3.15;1.77;;;;;;;13.05;nan;99926.03;4972129;28;20395;-88
2022/12/29 12:24:49;;;;;;;4.20;1.65;;;;;;;13.10;nan;99921.81;4974727;28;20027;-87
2022/12/29 12:27:23;;;;;;;4.60;1.48;;;;;;;13.05;nan;99926.03;4977898;28;20031;-87
2022/12/29 12:30:03;;;;;;;4.53;2.40;;;;;;;13.07;nan;99932.00;4966222;28;20066;-86
2022/12/29 12:32:46;;;;;;;6.18;2.53;;;;;;;12.90;nan;99931.34;4972362;28;20099;-86
2022/12/29 12:35:13;;;;;;;5.18;2.65;;;;;;;12.60;nan;99928.63;4983775;28;20031;-86
2022/12/29 12:37:59;;;;;;;4.20;2.03;;;;;;;12.58;nan;99924.50;4974282;28;20035;-86
2022/12/29 12:40:34;;;;;;;2.85;1.35;;;;;;;12.78;nan;99927.47;4975022;28;20034;-87